John_paul K — PBHY — position and weather

sailwx.info

Track history (hours):
 
Tides and Currents Weather Stations Pressure Air Temp Water Temp Dewpoint Dewpoint Depression Visibility Wind Speed Wind Dir Waves Ship Positions

John_paul K

Last reported at 2017-Apr-30 02:19 UTC. Time now 2017-Apr-30 16:53 UTC.
Position N 57°45' E 006°23'.

Length 90 m; draft 6 m.

Type: Cargo ship. MMSI: 245181000.

Date/timePositionNaut miles runAvg speedWind from/ knotsBaromVisibWave heightAir tempDewpointWater temp
2017-Apr-30 02:19N 57°45' E 006°23'3 8.4
2017-Apr-30 02:00N 57°48' E 006°22'4 8.3
2017-Apr-30 01:30N 57°52' E 006°21'4 8.6
2017-Apr-30 01:00N 57°56' E 006°19'4 7.5
2017-Apr-30 00:30N 57°60' E 006°19'4 8.7
2017-Apr-30 00:00N 58°04' E 006°18'4 8.6
2017-Apr-29 23:30N 58°08' E 006°16'4 8.2
2017-Apr-29 23:00N 58°12' E 006°15'4 8.2
2017-Apr-29 22:30N 58°16' E 006°14'4 7.3
2017-Apr-29 22:00N 58°20' E 006°15'0 0.0
2017-Apr-29 21:28N 58°20' E 006°15'0 0.0
2017-Apr-29 20:52N 58°20' E 006°15'0 0.0
2017-Apr-29 20:22N 58°20' E 006°15'0 0.1
2017-Apr-29 19:55N 58°20' E 006°15'0 0.0
2017-Apr-29 19:28N 58°20' E 006°15'0 0.0
2017-Apr-29 18:58N 58°20' E 006°15'0 0.0
2017-Apr-29 18:25N 58°20' E 006°15'0 0.0
2017-Apr-29 17:58N 58°20' E 006°15'0 0.0
2017-Apr-29 17:28N 58°20' E 006°15'0 0.0
2017-Apr-29 16:52N 58°20' E 006°15'0 0.0
2017-Apr-29 16:19N 58°20' E 006°15'0 0.0
2017-Apr-29 15:52N 58°20' E 006°15'0 0.0
2017-Apr-29 15:28N 58°20' E 006°15'0 0.0
2017-Apr-29 14:55N 58°20' E 006°15'0 0.0
2017-Apr-29 13:58N 58°20' E 006°15'0 0.0
2017-Apr-29 13:28N 58°20' E 006°15'0 0.0
2017-Apr-29 12:58N 58°20' E 006°15'0 0.0
2017-Apr-29 12:25N 58°20' E 006°15'0 0.0
2017-Apr-29 11:58N 58°20' E 006°15'0 0.0
2017-Apr-29 11:28N 58°20' E 006°15'0 0.0
2017-Apr-29 10:58N 58°20' E 006°15'0 0.0
2017-Apr-29 10:31N 58°20' E 006°15'1 2.5
2017-Apr-29 10:00N 58°19' E 006°15'4 8.8
2017-Apr-29 09:30N 58°14' E 006°13'510.1
2017-Apr-29 09:01N 58°09' E 006°11'510.2
2017-Apr-29 08:29N 58°04' E 006°10'5 9.9
2017-Apr-29 08:00N 57°59' E 006°09'6 9.9
2017-Apr-29 07:27N 57°54' E 006°07'246 9.1
2017-Apr-28 04:18N 53°51' E 005°00'3 9.0
2017-Apr-28 03:59N 53°48' E 004°58'4 9.0
2017-Apr-28 03:30N 53°44' E 004°56'4 8.8
2017-Apr-28 03:00N 53°40' E 004°53'40 8.1
2017-Apr-27 22:04N 53°03' E 004°25'1 8.2
2017-Apr-27 22:00N 53°03' E 004°25'4 7.9
2017-Apr-27 21:26N 52°59' E 004°21'9 7.9
2017-Apr-27 20:16N 52°50' E 004°16'2 8.7
2017-Apr-27 20:01N 52°49' E 004°14'4 8.9
2017-Apr-27 19:30N 52°45' E 004°10'5 9.3
2017-Apr-27 19:01N 52°41' E 004°05'5 9.8
2017-Apr-27 18:31N 52°37' E 004°00'5 9.9
2017-Apr-27 17:58N 52°33' E 003°56'510.4
2017-Apr-27 17:30N 52°28' E 003°54'910.7
2017-Apr-27 16:41N 52°19' E 003°52'510.5
2017-Apr-27 16:11N 52°14' E 003°53'210.6
2017-Apr-27 16:00N 52°12' E 003°54'510.5
2017-Apr-27 15:31N 52°07' E 003°55'611.2
2017-Apr-27 15:00N 52°07' E 003°46'2 1.6
2017-Apr-27 13:39N 52°08' E 003°43'0 0.0
2017-Apr-27 08:57N 52°08' E 003°43'0 0.0
2017-Apr-27 04:46N 52°08' E 003°43'0 0.0
2017-Apr-27 04:22N 52°08' E 003°43'0 0.0
2017-Apr-27 02:46N 52°08' E 003°43'0 0.0
2017-Apr-26 14:33N 52°08' E 003°43'0 0.0
2017-Apr-26 04:09N 52°08' E 003°43'0 0.1
2017-Apr-26 03:51N 52°08' E 003°43'0 0.0
2017-Apr-25 17:02N 52°08' E 003°43'0 0.3
2017-Apr-25 16:59N 52°08' E 003°43'0 0.2
2017-Apr-25 16:29N 52°08' E 003°43'1 3.0
2017-Apr-25 15:59N 52°07' E 003°44'4 7.6
2017-Apr-25 15:30N 52°05' E 003°49'4 7.9
2017-Apr-25 15:00N 52°03' E 003°55'4 7.6
2017-Apr-25 14:30N 52°01' E 003°60'10 9.5
2017-Apr-25 13:30N 51°56' E 004°13'4 7.8
2017-Apr-25 13:00N 51°54' E 004°18'4 7.6
2017-Apr-25 12:28N 51°54' E 004°25'0 0.0
2017-Apr-25 11:58N 51°54' E 004°25'0 0.0
2017-Apr-25 11:29N 51°54' E 004°25'0 0.0
2017-Apr-25 10:58N 51°54' E 004°25'0 0.0
2017-Apr-25 10:29N 51°54' E 004°25'0 0.0
2017-Apr-25 09:59N 51°54' E 004°25'0 0.0
2017-Apr-25 09:29N 51°54' E 004°25'0 0.0
2017-Apr-25 08:58N 51°54' E 004°25'0 0.0
2017-Apr-25 08:29N 51°54' E 004°25'0 0.0
2017-Apr-25 07:59N 51°54' E 004°25'0 0.0
2017-Apr-25 07:28N 51°54' E 004°25'0 0.0
2017-Apr-25 06:59N 51°54' E 004°25'0 0.0
2017-Apr-25 06:28N 51°54' E 004°25'0 0.0
2017-Apr-25 05:59N 51°54' E 004°25'0 0.0
2017-Apr-25 05:28N 51°54' E 004°25'0 0.0
2017-Apr-25 04:58N 51°54' E 004°25'0 0.0
2017-Apr-25 04:28N 51°54' E 004°25'0 0.0
2017-Apr-25 03:59N 51°54' E 004°25'0 0.0
2017-Apr-25 03:28N 51°54' E 004°25'0 0.0
2017-Apr-25 02:56N 51°54' E 004°25'0 0.0
2017-Apr-25 02:28N 51°54' E 004°25'0 0.0
2017-Apr-25 01:58N 51°54' E 004°25'0 0.0
2017-Apr-25 01:31N 51°54' E 004°25'1 2.6
2017-Apr-25 01:01N 51°54' E 004°23'611.6
2017-Apr-25 00:31N 51°55' E 004°14'713.4
2017-Apr-25 00:00N 51°59' E 004°05'713.0
2017-Apr-24 23:30N 51°60' E 003°54'4 8.4
2017-Apr-24 23:00N 51°59' E 003°48'60 7.7
2017-Apr-24 15:15N 51°33' E 002°21'2 8.9
2017-Apr-24 15:00N 51°31' E 002°19'4 8.7
2017-Apr-24 14:30N 51°28' E 002°15'9 9.2
2017-Apr-24 13:30N 51°20' E 002°08'5 9.5
2017-Apr-24 13:00N 51°15' E 002°04'5 9.9
2017-Apr-24 12:30N 51°12' E 001°58'510.3
2017-Apr-24 12:00N 51°09' E 001°52'510.7
2017-Apr-24 11:30N 51°05' E 001°46'611.1
2017-Apr-24 11:00N 51°01' E 001°40'611.5
2017-Apr-24 10:30N 50°57' E 001°33'6410.0
2017-Apr-24 04:05N 50°23' E 000°08'1 9.3
2017-Apr-24 04:00N 50°22' E 000°07'5 9.1
2017-Apr-24 03:29N 50°21' W 000°00'4 8.8
2017-Apr-24 03:00N 50°20' W 000°06'4 8.4
2017-Apr-24 02:30N 50°19' W 000°13'4 8.1
2017-Apr-24 02:00N 50°17' W 000°19'4 7.8
2017-Apr-24 01:30N 50°16' W 000°25'4 7.5
2017-Apr-24 01:00N 50°15' W 000°30'7 7.3
2017-Apr-24 00:03N 50°13' W 000°41'0 7.1
2017-Apr-24 00:00N 50°13' W 000°41'4 7.1
2017-Apr-23 23:30N 50°12' W 000°47'4 7.2
2017-Apr-23 23:00N 50°11' W 000°52'5 7.6
2017-Apr-23 22:24N 50°10' W 000°59'5410.4
2017-Apr-23 17:15N 49°54' W 002°19'611.7
2017-Apr-23 16:46N 49°53' W 002°27'611.1
2017-Apr-23 16:15N 49°51' W 002°36'710.7
2017-Apr-23 15:34N 49°49' W 002°46'110.5
2017-Apr-23 15:30N 49°49' W 002°47'510.3
2017-Apr-23 15:00N 49°46' W 002°55'10 9.8
2017-Apr-23 14:00N 49°41' W 003°07'5 9.4
2017-Apr-23 13:30N 49°39' W 003°13'5 9.2
2017-Apr-23 13:00N 49°36' W 003°20'8 8.9
2017-Apr-23 12:07N 49°33' W 003°30'1 8.8
2017-Apr-23 12:00N 49°32' W 003°32'73 8.6
2017-Apr-23 03:25N 48°55' W 005°09'170 9.0
2017-Apr-22 08:33N 46°06' W 004°44'1 9.8
2017-Apr-22 08:30N 46°06' W 004°44'5 9.7
2017-Apr-22 08:00N 46°01' W 004°42'5 9.8
2017-Apr-22 07:30N 45°56' W 004°41'5 9.7
2017-Apr-22 07:00N 45°51' W 004°39'5 9.5
2017-Apr-22 06:30N 45°47' W 004°37'5 9.5
2017-Apr-22 06:00N 45°42' W 004°35'510.7
2017-Apr-22 05:30N 45°37' W 004°33'511.0
2017-Apr-22 05:00N 45°32' W 004°31'610.8
2017-Apr-22 04:30N 45°26' W 004°29'510.8
2017-Apr-22 04:00N 45°21' W 004°27'510.8
2017-Apr-22 03:30N 45°16' W 004°25'510.8
2017-Apr-22 03:00N 45°11' W 004°23'610.8
2017-Apr-22 02:28N 45°05' W 004°21'  
Track history (hours):
 
Tides and Currents Weather Stations Pressure Air Temp Water Temp Dewpoint Dewpoint Depression Visibility Wind Speed Wind Dir Waves Ship Positions

John_paul K

Last reported at 2017-Apr-30 02:19 UTC. Time now 2017-Apr-30 16:53 UTC.
Position N 57°45' E 006°23'.

Length 90 m; draft 6 m.

Type: Cargo ship. MMSI: 245181000.

Date/timePositionNaut miles runAvg speedWind from/ knotsBaromVisibWave heightAir tempDewpointWater temp
2017-Apr-30 02:19N 57°45' E 006°23'3 8.4
2017-Apr-30 02:00N 57°48' E 006°22'4 8.3
2017-Apr-30 01:30N 57°52' E 006°21'4 8.6
2017-Apr-30 01:00N 57°56' E 006°19'4 7.5
2017-Apr-30 00:30N 57°60' E 006°19'4 8.7
2017-Apr-30 00:00N 58°04' E 006°18'4 8.6
2017-Apr-29 23:30N 58°08' E 006°16'4 8.2
2017-Apr-29 23:00N 58°12' E 006°15'4 8.2
2017-Apr-29 22:30N 58°16' E 006°14'4 7.3
2017-Apr-29 22:00N 58°20' E 006°15'0 0.0
2017-Apr-29 21:28N 58°20' E 006°15'0 0.0
2017-Apr-29 20:52N 58°20' E 006°15'0 0.0
2017-Apr-29 20:22N 58°20' E 006°15'0 0.1
2017-Apr-29 19:55N 58°20' E 006°15'0 0.0
2017-Apr-29 19:28N 58°20' E 006°15'0 0.0
2017-Apr-29 18:58N 58°20' E 006°15'0 0.0
2017-Apr-29 18:25N 58°20' E 006°15'0 0.0
2017-Apr-29 17:58N 58°20' E 006°15'0 0.0
2017-Apr-29 17:28N 58°20' E 006°15'0 0.0
2017-Apr-29 16:52N 58°20' E 006°15'0 0.0
2017-Apr-29 16:19N 58°20' E 006°15'0 0.0
2017-Apr-29 15:52N 58°20' E 006°15'0 0.0
2017-Apr-29 15:28N 58°20' E 006°15'0 0.0
2017-Apr-29 14:55N 58°20' E 006°15'0 0.0
2017-Apr-29 13:58N 58°20' E 006°15'0 0.0
2017-Apr-29 13:28N 58°20' E 006°15'0 0.0
2017-Apr-29 12:58N 58°20' E 006°15'0 0.0
2017-Apr-29 12:25N 58°20' E 006°15'0 0.0
2017-Apr-29 11:58N 58°20' E 006°15'0 0.0
2017-Apr-29 11:28N 58°20' E 006°15'0 0.0
2017-Apr-29 10:58N 58°20' E 006°15'0 0.0
2017-Apr-29 10:31N 58°20' E 006°15'1 2.5
2017-Apr-29 10:00N 58°19' E 006°15'4 8.8
2017-Apr-29 09:30N 58°14' E 006°13'510.1
2017-Apr-29 09:01N 58°09' E 006°11'510.2
2017-Apr-29 08:29N 58°04' E 006°10'5 9.9
2017-Apr-29 08:00N 57°59' E 006°09'6 9.9
2017-Apr-29 07:27N 57°54' E 006°07'246 9.1
2017-Apr-28 04:18N 53°51' E 005°00'3 9.0
2017-Apr-28 03:59N 53°48' E 004°58'4 9.0
2017-Apr-28 03:30N 53°44' E 004°56'4 8.8
2017-Apr-28 03:00N 53°40' E 004°53'40 8.1
2017-Apr-27 22:04N 53°03' E 004°25'1 8.2
2017-Apr-27 22:00N 53°03' E 004°25'4 7.9
2017-Apr-27 21:26N 52°59' E 004°21'9 7.9
2017-Apr-27 20:16N 52°50' E 004°16'2 8.7
2017-Apr-27 20:01N 52°49' E 004°14'4 8.9
2017-Apr-27 19:30N 52°45' E 004°10'5 9.3
2017-Apr-27 19:01N 52°41' E 004°05'5 9.8
2017-Apr-27 18:31N 52°37' E 004°00'5 9.9
2017-Apr-27 17:58N 52°33' E 003°56'510.4
2017-Apr-27 17:30N 52°28' E 003°54'910.7
2017-Apr-27 16:41N 52°19' E 003°52'510.5
2017-Apr-27 16:11N 52°14' E 003°53'210.6
2017-Apr-27 16:00N 52°12' E 003°54'510.5
2017-Apr-27 15:31N 52°07' E 003°55'611.2
2017-Apr-27 15:00N 52°07' E 003°46'2 1.6
2017-Apr-27 13:39N 52°08' E 003°43'0 0.0
2017-Apr-27 08:57N 52°08' E 003°43'0 0.0
2017-Apr-27 04:46N 52°08' E 003°43'0 0.0
2017-Apr-27 04:22N 52°08' E 003°43'0 0.0
2017-Apr-27 02:46N 52°08' E 003°43'0 0.0
2017-Apr-26 14:33N 52°08' E 003°43'0 0.0
2017-Apr-26 04:09N 52°08' E 003°43'0 0.1
2017-Apr-26 03:51N 52°08' E 003°43'0 0.0
2017-Apr-25 17:02N 52°08' E 003°43'0 0.3
2017-Apr-25 16:59N 52°08' E 003°43'0 0.2
2017-Apr-25 16:29N 52°08' E 003°43'1 3.0
2017-Apr-25 15:59N 52°07' E 003°44'4 7.6
2017-Apr-25 15:30N 52°05' E 003°49'4 7.9
2017-Apr-25 15:00N 52°03' E 003°55'4 7.6
2017-Apr-25 14:30N 52°01' E 003°60'10 9.5
2017-Apr-25 13:30N 51°56' E 004°13'4 7.8
2017-Apr-25 13:00N 51°54' E 004°18'4 7.6
2017-Apr-25 12:28N 51°54' E 004°25'0 0.0
2017-Apr-25 11:58N 51°54' E 004°25'0 0.0
2017-Apr-25 11:29N 51°54' E 004°25'0 0.0
2017-Apr-25 10:58N 51°54' E 004°25'0 0.0
2017-Apr-25 10:29N 51°54' E 004°25'0 0.0
2017-Apr-25 09:59N 51°54' E 004°25'0 0.0
2017-Apr-25 09:29N 51°54' E 004°25'0 0.0
2017-Apr-25 08:58N 51°54' E 004°25'0 0.0
2017-Apr-25 08:29N 51°54' E 004°25'0 0.0
2017-Apr-25 07:59N 51°54' E 004°25'0 0.0
2017-Apr-25 07:28N 51°54' E 004°25'0 0.0
2017-Apr-25 06:59N 51°54' E 004°25'0 0.0
2017-Apr-25 06:28N 51°54' E 004°25'0 0.0
2017-Apr-25 05:59N 51°54' E 004°25'0 0.0
2017-Apr-25 05:28N 51°54' E 004°25'0 0.0
2017-Apr-25 04:58N 51°54' E 004°25'0 0.0
2017-Apr-25 04:28N 51°54' E 004°25'0 0.0
2017-Apr-25 03:59N 51°54' E 004°25'0 0.0
2017-Apr-25 03:28N 51°54' E 004°25'0 0.0
2017-Apr-25 02:56N 51°54' E 004°25'0 0.0
2017-Apr-25 02:28N 51°54' E 004°25'0 0.0
2017-Apr-25 01:58N 51°54' E 004°25'0 0.0
2017-Apr-25 01:31N 51°54' E 004°25'1 2.6
2017-Apr-25 01:01N 51°54' E 004°23'611.6
2017-Apr-25 00:31N 51°55' E 004°14'713.4
2017-Apr-25 00:00N 51°59' E 004°05'713.0
2017-Apr-24 23:30N 51°60' E 003°54'4 8.4
2017-Apr-24 23:00N 51°59' E 003°48'60 7.7
2017-Apr-24 15:15N 51°33' E 002°21'2 8.9
2017-Apr-24 15:00N 51°31' E 002°19'4 8.7
2017-Apr-24 14:30N 51°28' E 002°15'9 9.2
2017-Apr-24 13:30N 51°20' E 002°08'5 9.5
2017-Apr-24 13:00N 51°15' E 002°04'5 9.9
2017-Apr-24 12:30N 51°12' E 001°58'510.3
2017-Apr-24 12:00N 51°09' E 001°52'510.7
2017-Apr-24 11:30N 51°05' E 001°46'611.1
2017-Apr-24 11:00N 51°01' E 001°40'611.5
2017-Apr-24 10:30N 50°57' E 001°33'6410.0
2017-Apr-24 04:05N 50°23' E 000°08'1 9.3
2017-Apr-24 04:00N 50°22' E 000°07'5 9.1
2017-Apr-24 03:29N 50°21' W 000°00'4 8.8
2017-Apr-24 03:00N 50°20' W 000°06'4 8.4
2017-Apr-24 02:30N 50°19' W 000°13'4 8.1
2017-Apr-24 02:00N 50°17' W 000°19'4 7.8
2017-Apr-24 01:30N 50°16' W 000°25'4 7.5
2017-Apr-24 01:00N 50°15' W 000°30'7 7.3
2017-Apr-24 00:03N 50°13' W 000°41'0 7.1
2017-Apr-24 00:00N 50°13' W 000°41'4 7.1
2017-Apr-23 23:30N 50°12' W 000°47'4 7.2
2017-Apr-23 23:00N 50°11' W 000°52'5 7.6
2017-Apr-23 22:24N 50°10' W 000°59'5410.4
2017-Apr-23 17:15N 49°54' W 002°19'611.7
2017-Apr-23 16:46N 49°53' W 002°27'611.1
2017-Apr-23 16:15N 49°51' W 002°36'710.7
2017-Apr-23 15:34N 49°49' W 002°46'110.5
2017-Apr-23 15:30N 49°49' W 002°47'510.3
2017-Apr-23 15:00N 49°46' W 002°55'10 9.8
2017-Apr-23 14:00N 49°41' W 003°07'5 9.4
2017-Apr-23 13:30N 49°39' W 003°13'5 9.2
2017-Apr-23 13:00N 49°36' W 003°20'8 8.9
2017-Apr-23 12:07N 49°33' W 003°30'1 8.8
2017-Apr-23 12:00N 49°32' W 003°32'73 8.6
2017-Apr-23 03:25N 48°55' W 005°09'170 9.0
2017-Apr-22 08:33N 46°06' W 004°44'1 9.8
2017-Apr-22 08:30N 46°06' W 004°44'5 9.7
2017-Apr-22 08:00N 46°01' W 004°42'5 9.8
2017-Apr-22 07:30N 45°56' W 004°41'5 9.7
2017-Apr-22 07:00N 45°51' W 004°39'5 9.5
2017-Apr-22 06:30N 45°47' W 004°37'5 9.5
2017-Apr-22 06:00N 45°42' W 004°35'510.7
2017-Apr-22 05:30N 45°37' W 004°33'511.0
2017-Apr-22 05:00N 45°32' W 004°31'610.8
2017-Apr-22 04:30N 45°26' W 004°29'510.8
2017-Apr-22 04:00N 45°21' W 004°27'510.8
2017-Apr-22 03:30N 45°16' W 004°25'510.8
2017-Apr-22 03:00N 45°11' W 004°23'610.8
2017-Apr-22 02:28N 45°05' W 004°21'  

Dump ship's entire track history